Time;durP1;ratioP1;P1;durP2;ratioP2;P2;SDS_P1;SDS_P2;PMS_P1;PMS_P2;Temp;Humidity;BMP_temperature;BMP_pressure;BME280_temperature;BME280_humidity;BME280_pressure;Samples;Min_cycle;Max_cycle;Signal;HPM_P1;HPM_P2
2023/07/25 00:00:24;;;;;;;0.75;0.20;;;;;;;18.49;67.13;100059.72;5187906;28;20045;-83
2023/07/25 00:03:15;;;;;;;0.40;0.40;;;;;;;18.43;66.85;100060.16;5179877;28;20566;-81
2023/07/25 00:06:06;;;;;;;0.40;0.40;;;;;;;18.38;67.34;100063.13;5164456;28;20661;-83
2023/07/25 00:08:56;;;;;;;0.40;0.40;;;;;;;18.35;67.10;100063.34;5161375;28;20037;-83
2023/07/25 00:11:47;;;;;;;0.25;0.25;;;;;;;18.06;68.80;100060.88;5160727;28;20947;-83
2023/07/25 00:14:38;;;;;;;0.90;0.90;;;;;;;18.27;67.40;100058.53;5153551;28;20495;-83
2023/07/25 00:17:29;;;;;;;0.30;0.30;;;;;;;18.32;66.67;100063.53;5158019;28;20061;-83
2023/07/25 00:20:20;;;;;;;1.00;0.77;;;;;;;18.33;66.60;100078.50;5182559;28;20326;-83
2023/07/25 00:23:11;;;;;;;0.30;0.30;;;;;;;18.30;66.97;100073.44;5181342;28;20112;-83
2023/07/25 00:26:02;;;;;;;0.30;0.30;;;;;;;18.29;66.76;100077.03;5157762;28;20667;-82
2023/07/25 00:28:52;;;;;;;0.20;0.20;;;;;;;18.20;67.43;100070.56;5165192;28;20099;-84
2023/07/25 00:31:43;;;;;;;0.20;0.20;;;;;;;18.23;67.30;100065.88;5165489;28;20025;-83
2023/07/25 00:34:34;;;;;;;0.40;0.40;;;;;;;18.32;66.43;100075.03;5156040;28;20034;-82
2023/07/25 00:37:30;;;;;;;0.40;0.40;;;;;;;18.37;66.99;100072.88;5169887;28;20036;-83
2023/07/25 00:40:21;;;;;;;1.55;1.33;;;;;;;18.13;67.52;100087.88;5179489;28;20085;-84
2023/07/25 00:43:12;;;;;;;0.40;0.40;;;;;;;18.27;66.23;100086.91;5194930;28;20041;-83
2023/07/25 00:46:04;;;;;;;0.75;0.50;;;;;;;18.02;68.55;100080.66;5191010;28;20038;-83
2023/07/25 00:48:55;;;;;;;0.40;0.40;;;;;;;17.99;68.06;100073.75;5168525;28;20022;-83
2023/07/25 00:51:46;;;;;;;1.02;0.73;;;;;;;18.11;67.32;100072.06;5178042;28;20082;-85
2023/07/25 00:54:38;;;;;;;0.30;0.30;;;;;;;18.17;67.28;100071.63;5163306;28;20033;-84
2023/07/25 00:57:30;;;;;;;0.20;0.20;;;;;;;18.17;66.86;100065.47;5185077;28;20023;-84
2023/07/25 01:00:21;;;;;;;0.20;0.20;;;;;;;18.12;67.07;100073.75;5171912;28;20018;-83
2023/07/25 01:03:12;;;;;;;0.50;0.50;;;;;;;18.08;67.71;100066.94;5184253;28;20042;-84
2023/07/25 01:06:05;;;;;;;0.20;0.20;;;;;;;18.07;67.43;100068.75;5168332;28;20053;-85
2023/07/25 01:08:56;;;;;;;0.57;0.57;;;;;;;18.13;66.93;100064.84;5180931;28;20026;-82
2023/07/25 01:11:47;;;;;;;0.52;0.52;;;;;;;18.20;66.62;100060.81;5173256;28;20075;-83
2023/07/25 01:14:39;;;;;;;0.40;0.40;;;;;;;17.90;68.13;100055.78;5205914;28;20045;-83
2023/07/25 01:17:30;;;;;;;2.60;1.08;;;;;;;18.10;67.35;100054.44;5178039;28;20085;-83
2023/07/25 01:20:37;;;;;;;0.40;0.40;;;;;;;18.11;66.66;100045.50;5183703;23;20057;-83
2023/07/25 01:23:31;;;;;;;0.40;0.38;;;;;;;18.08;66.90;100041.25;5183903;28;20103;-82
2023/07/25 01:26:26;;;;;;;5.57;1.95;;;;;;;18.16;66.63;100031.91;5168977;28;20395;-82
2023/07/25 01:29:16;;;;;;;0.20;0.20;;;;;;;18.13;67.02;100025.03;5184310;28;20380;-82
2023/07/25 01:32:08;;;;;;;0.30;0.30;;;;;;;18.09;67.58;100020.88;5182796;28;20304;-82
2023/07/25 01:34:59;;;;;;;0.50;0.50;;;;;;;18.14;66.65;100018.72;5189999;28;20038;-82
2023/07/25 01:37:50;;;;;;;0.55;0.55;;;;;;;18.10;66.54;100011.94;5197133;28;20029;-83
2023/07/25 01:40:41;;;;;;;0.30;0.30;;;;;;;18.04;66.63;100012.38;5179827;28;20037;-82
2023/07/25 01:43:32;;;;;;;0.82;0.57;;;;;;;18.00;67.13;100022.38;5184470;28;20036;-82
2023/07/25 01:46:23;;;;;;;0.30;0.30;;;;;;;17.90;67.35;100022.09;5182462;28;20056;-82
2023/07/25 01:49:14;;;;;;;0.30;0.30;;;;;;;17.91;66.84;100018.50;5191407;28;20438;-82
2023/07/25 01:52:05;;;;;;;1.45;0.95;;;;;;;17.83;67.35;100020.84;5174385;28;20555;-83
2023/07/25 01:54:59;;;;;;;0.20;0.20;;;;;;;17.89;66.89;100019.56;5193157;28;20101;-83
2023/07/25 01:57:50;;;;;;;;;;;;;;;17.87;67.22;100011.72;5189803;28;20021;-83
2023/07/25 02:00:40;;;;;;;0.40;0.40;;;;;;;17.90;66.76;100006.19;5184786;28;19921;-83
2023/07/25 02:03:31;;;;;;;0.43;0.43;;;;;;;17.87;67.48;100002.91;5199669;28;20053;-82
2023/07/25 02:06:22;;;;;;;0.47;0.47;;;;;;;17.83;66.92;99999.59;5184072;28;20060;-83
2023/07/25 02:09:13;;;;;;;0.77;0.77;;;;;;;17.88;66.87;99993.97;5147445;28;20373;-85
2023/07/25 02:12:05;;;;;;;0.45;0.45;;;;;;;17.84;66.93;99990.69;5190643;28;20036;-85
2023/07/25 02:14:59;;;;;;;0.20;0.20;;;;;;;17.66;67.93;99994.59;5189139;28;20514;-84
2023/07/25 02:17:50;;;;;;;0.30;0.30;;;;;;;17.77;66.82;99994.72;5200024;28;20055;-81
2023/07/25 02:20:41;;;;;;;0.80;0.65;;;;;;;17.78;66.69;99991.97;5193741;28;20128;-82
2023/07/25 02:23:32;;;;;;;0.20;0.20;;;;;;;17.69;67.72;99997.06;5187117;28;20099;-82
2023/07/25 02:26:23;;;;;;;1.20;1.10;;;;;;;17.75;66.49;100007.25;5182471;28;20526;-83
2023/07/25 02:29:14;;;;;;;0.20;0.20;;;;;;;17.75;66.50;100007.25;5190677;28;20033;-82
2023/07/25 02:32:05;;;;;;;0.30;0.30;;;;;;;17.72;66.65;99996.88;5181748;28;20273;-83
2023/07/25 02:34:55;;;;;;;5.95;1.30;;;;;;;17.72;66.35;99996.88;5175332;28;20473;-82
2023/07/25 02:37:46;;;;;;;0.40;0.40;;;;;;;17.66;66.88;100007.88;5192682;28;20022;-82
2023/07/25 02:40:37;;;;;;;0.40;0.40;;;;;;;17.68;66.44;100012.13;5195209;28;20042;-83
2023/07/25 02:43:28;;;;;;;0.28;0.28;;;;;;;17.70;66.29;100010.22;5182157;28;20140;-83
2023/07/25 02:46:19;;;;;;;0.60;0.60;;;;;;;17.71;66.58;100003.13;5199236;28;20063;-83
2023/07/25 02:49:10;;;;;;;0.30;0.30;;;;;;;17.64;66.87;99999.19;5166044;28;20524;-84
2023/07/25 02:52:01;;;;;;;0.38;0.38;;;;;;;17.66;66.96;100005.22;5187263;28;20044;-81
2023/07/25 02:54:51;;;;;;;0.30;0.30;;;;;;;17.53;67.41;100008.72;5203146;28;20034;-82
2023/07/25 02:57:42;;;;;;;0.40;0.40;;;;;;;17.64;66.67;100009.81;5181284;28;20112;-83
2023/07/25 03:00:33;;;;;;;0.75;0.73;;;;;;;17.61;66.97;100014.34;5195526;28;20033;-83
2023/07/25 03:03:24;;;;;;;5.38;1.40;;;;;;;17.43;68.48;100018.25;5184866;28;20061;-81
2023/07/25 03:06:15;;;;;;;0.55;0.55;;;;;;;17.39;68.12;100022.06;5203803;28;20018;-82
2023/07/25 03:09:09;;;;;;;2.65;1.20;;;;;;;17.41;67.67;100013.06;5201949;28;20057;-82
2023/07/25 03:12:04;;;;;;;1.17;1.08;;;;;;;17.33;68.44;100011.84;5204800;28;20018;-82
2023/07/25 03:14:55;;;;;;;2.22;2.05;;;;;;;17.40;67.52;100013.13;5218483;28;20056;-82
2023/07/25 03:17:46;;;;;;;0.95;0.95;;;;;;;17.40;67.41;100007.81;5188222;28;20009;-82
2023/07/25 03:20:39;;;;;;;1.30;1.17;;;;;;;17.36;67.50;99996.59;5204526;28;20102;-82
2023/07/25 03:23:32;;;;;;;0.70;0.70;;;;;;;17.27;67.64;99995.41;5196863;28;20128;-81
2023/07/25 03:26:25;;;;;;;1.08;1.08;;;;;;;17.33;66.90;99994.16;5198576;28;20061;-81
2023/07/25 03:29:16;;;;;;;1.27;0.43;;;;;;;17.34;66.76;99995.00;5169504;28;20566;-83
2023/07/25 03:32:07;;;;;;;0.30;0.30;;;;;;;17.34;66.47;100000.28;5177831;28;20063;-81
2023/07/25 03:35:02;;;;;;;1.02;0.93;;;;;;;17.30;66.60;100003.16;5185968;28;20038;-83
2023/07/25 03:37:53;;;;;;;0.47;0.47;;;;;;;17.27;66.82;100003.38;5183710;28;20026;-81
2023/07/25 03:40:44;;;;;;;0.35;0.35;;;;;;;17.26;66.98;100008.78;5198843;28;20061;-82
2023/07/25 03:43:35;;;;;;;0.40;0.40;;;;;;;17.27;66.28;99995.41;5179253;28;20037;-82
2023/07/25 03:46:28;;;;;;;0.57;0.57;;;;;;;17.31;66.43;99988.94;5186178;28;20247;-82
2023/07/25 03:49:19;;;;;;;0.45;0.45;;;;;;;17.20;67.59;99994.13;5186585;28;20099;-82
2023/07/25 03:52:10;;;;;;;0.80;0.57;;;;;;;16.99;68.41;99999.88;5192994;28;20042;-82
2023/07/25 03:55:01;;;;;;;0.25;0.25;;;;;;;17.02;67.72;99992.69;5196008;28;20073;-82
2023/07/25 03:57:55;;;;;;;6.55;2.00;;;;;;;17.09;67.49;99993.97;5173340;28;20542;-82
2023/07/25 04:00:46;;;;;;;0.43;0.43;;;;;;;16.94;68.41;99980.78;5202806;28;20061;-83
2023/07/25 04:03:36;;;;;;;1.73;1.63;;;;;;;17.04;68.11;99977.53;5185181;28;20530;-82
2023/07/25 04:06:27;;;;;;;0.40;0.40;;;;;;;16.95;68.86;99985.16;5170780;28;20041;-81
2023/07/25 04:09:18;;;;;;;2.08;1.42;;;;;;;16.83;68.69;99984.13;5180689;28;20055;-83
2023/07/25 04:12:09;;;;;;;1.05;1.00;;;;;;;16.98;68.04;99984.91;5200023;28;20033;-82
2023/07/25 04:15:00;;;;;;;0.57;0.57;;;;;;;17.00;67.30;99982.19;5182096;28;20108;-81
2023/07/25 04:17:51;;;;;;;0.43;0.43;;;;;;;16.80;68.99;99980.81;5187506;28;20499;-80
2023/07/25 04:20:42;;;;;;;0.55;0.55;;;;;;;16.88;67.62;99980.28;5171552;28;20041;-81
2023/07/25 04:23:32;;;;;;;0.68;0.47;;;;;;;16.67;69.44;99986.06;5189696;28;20045;-81
2023/07/25 04:26:23;;;;;;;0.50;0.50;;;;;;;16.79;67.98;99979.94;5198280;28;20048;-82
2023/07/25 04:29:14;;;;;;;0.52;0.52;;;;;;;16.73;68.37;99982.16;5174785;28;20033;-81
2023/07/25 04:32:05;;;;;;;0.73;0.73;;;;;;;16.75;67.58;99980.25;5169050;28;20104;-82
2023/07/25 04:34:56;;;;;;;0.60;0.60;;;;;;;16.70;68.43;99985.84;5198115;28;20416;-81
2023/07/25 04:37:47;;;;;;;0.30;0.30;;;;;;;16.72;67.83;99986.59;5186021;28;20056;-81
2023/07/25 04:40:38;;;;;;;0.73;0.70;;;;;;;16.79;67.61;99987.91;5172253;28;20095;-81
2023/07/25 04:43:29;;;;;;;1.27;0.90;;;;;;;16.84;67.22;99990.25;5191401;28;20043;-81
2023/07/25 04:46:20;;;;;;;0.50;0.50;;;;;;;16.80;67.10;99983.47;5171459;28;20642;-82
2023/07/25 04:49:13;;;;;;;0.55;0.55;;;;;;;16.75;67.38;99988.19;5175790;28;20046;-81
2023/07/25 04:52:04;;;;;;;0.40;0.40;;;;;;;16.80;67.85;99996.72;5200960;28;20626;-82
2023/07/25 04:54:57;;;;;;;0.40;0.32;;;;;;;16.77;67.80;99994.25;5175206;28;20697;-81
2023/07/25 04:57:51;;;;;;;7.78;1.38;;;;;;;16.75;68.30;99999.66;5186848;28;20043;-81
2023/07/25 05:00:42;;;;;;;0.75;0.63;;;;;;;16.75;68.58;99991.72;5182714;28;20159;-81
2023/07/25 05:03:33;;;;;;;0.40;0.40;;;;;;;16.61;69.46;99987.28;5173542;28;20026;-81
2023/07/25 05:06:24;;;;;;;0.85;0.85;;;;;;;16.75;68.33;99996.13;5166631;28;20537;-80
2023/07/25 05:09:16;;;;;;;0.85;0.55;;;;;;;16.84;68.04;99985.81;5181625;28;20457;-81
2023/07/25 05:12:11;;;;;;;0.90;0.70;;;;;;;16.87;67.99;99979.47;5184474;28;20053;-81
2023/07/25 05:15:03;;;;;;;0.20;0.20;;;;;;;16.80;68.41;99978.16;5174820;28;20099;-81
2023/07/25 05:17:54;;;;;;;0.57;0.57;;;;;;;16.88;67.87;99989.13;5169229;28;20032;-82
2023/07/25 05:20:45;;;;;;;0.50;0.50;;;;;;;16.72;69.64;99980.47;5180445;28;20064;-80
2023/07/25 05:23:36;;;;;;;0.40;0.40;;;;;;;16.81;68.50;99983.34;5180458;28;20516;-82
2023/07/25 05:26:26;;;;;;;0.40;0.40;;;;;;;16.86;68.07;99983.06;5172026;28;20034;-82
2023/07/25 05:29:17;;;;;;;0.90;0.90;;;;;;;16.82;68.38;99985.06;5173547;28;20036;-83
2023/07/25 05:32:11;;;;;;;13.02;1.27;;;;;;;16.94;67.88;99991.38;5186476;28;20033;-82
2023/07/25 05:35:02;;;;;;;1.08;0.82;;;;;;;16.97;68.12;99990.34;5200447;28;20037;-81
2023/07/25 05:37:53;;;;;;;1.45;0.40;;;;;;;16.85;68.43;99999.91;5197677;28;20021;-81
2023/07/25 05:40:44;;;;;;;0.30;0.30;;;;;;;16.90;68.10;99996.94;5173421;28;20029;-81
2023/07/25 05:43:35;;;;;;;0.55;0.55;;;;;;;16.87;68.55;100010.38;5186007;28;20037;-83
2023/07/25 05:46:26;;;;;;;1.55;0.77;;;;;;;16.79;68.10;100014.38;5173855;28;20356;-81
2023/07/25 05:49:16;;;;;;;0.30;0.30;;;;;;;16.90;67.95;100021.63;5201553;28;20048;-81
2023/07/25 05:52:07;;;;;;;1.05;1.05;;;;;;;16.80;68.12;100024.03;5199755;28;20522;-83
2023/07/25 05:55:01;;;;;;;0.20;0.20;;;;;;;16.89;67.78;100024.41;5194606;28;20574;-83
2023/07/25 05:57:52;;;;;;;0.45;0.45;;;;;;;16.96;67.51;100028.38;5200308;28;20033;-83
2023/07/25 06:00:44;;;;;;;0.30;0.30;;;;;;;16.97;67.62;100030.94;5182218;28;20030;-83
2023/07/25 06:03:35;;;;;;;0.30;0.30;;;;;;;16.82;68.46;100029.22;5169003;28;20260;-83
2023/07/25 06:06:26;;;;;;;0.32;0.32;;;;;;;16.96;67.77;100023.06;5189621;28;20030;-83
2023/07/25 06:09:17;;;;;;;0.20;0.20;;;;;;;16.82;68.17;100018.63;5175280;28;20064;-83
2023/07/25 06:12:08;;;;;;;1.23;1.13;;;;;;;16.90;67.76;100021.63;5171534;28;20064;-83
2023/07/25 06:14:59;;;;;;;0.30;0.30;;;;;;;16.96;67.56;100031.91;5188179;28;20084;-83
2023/07/25 06:17:50;;;;;;;0.30;0.30;;;;;;;16.98;67.25;100040.56;5182018;28;20033;-83
2023/07/25 06:20:41;;;;;;;1.60;0.82;;;;;;;16.95;67.81;100034.63;5165114;28;20604;-83
2023/07/25 06:23:32;;;;;;;0.55;0.55;;;;;;;16.87;67.94;100037.75;5173651;28;20045;-83
2023/07/25 06:26:23;;;;;;;0.85;0.85;;;;;;;16.80;68.14;100034.63;5177499;28;20124;-83
2023/07/25 06:29:15;;;;;;;0.20;0.20;;;;;;;16.92;67.70;100034.81;5166359;28;20053;-83
2023/07/25 06:32:06;;;;;;;0.20;0.20;;;;;;;16.95;68.16;100038.13;5174140;28;20689;-82
2023/07/25 06:34:57;;;;;;;1.55;1.15;;;;;;;16.79;68.14;100040.03;5183137;28;20044;-81
2023/07/25 06:37:50;;;;;;;0.82;0.77;;;;;;;16.96;67.03;100047.78;5189607;28;20025;-82
2023/07/25 06:41:03;;;;;;;0.30;0.30;;;;;;;16.89;67.68;100049.09;5240246;23;20055;-82
2023/07/25 06:43:54;;;;;;;0.20;0.20;;;;;;;16.64;68.35;100040.09;5241312;28;20062;-81
2023/07/25 06:46:44;;;;;;;0.30;0.30;;;;;;;16.71;67.91;100040.50;5234463;28;20675;-82
2023/07/25 06:49:35;;;;;;;0.60;0.60;;;;;;;16.99;66.96;100036.97;5205039;28;20401;-82
2023/07/25 06:52:26;;;;;;;0.40;0.40;;;;;;;16.92;67.43;100040.94;5195308;28;20044;-83
2023/07/25 06:55:19;;;;;;;0.45;0.45;;;;;;;16.99;66.46;100044.09;5225302;28;20402;-81
2023/07/25 06:58:09;;;;;;;0.30;0.30;;;;;;;17.07;66.97;100038.28;5196389;28;20052;-82
2023/07/25 07:01:00;;;;;;;0.68;0.68;;;;;;;17.19;66.27;100032.19;5211832;28;20029;-83
2023/07/25 07:03:51;;;;;;;1.17;1.05;;;;;;;17.22;65.69;100042.59;5195532;28;20493;-83
2023/07/25 07:06:45;;;;;;;0.40;0.40;;;;;;;17.07;66.93;100055.03;5201748;28;20032;-84
2023/07/25 07:09:36;;;;;;;0.30;0.30;;;;;;;17.23;65.70;100048.72;5192417;28;20260;-83
2023/07/25 07:12:27;;;;;;;0.20;0.20;;;;;;;17.36;64.89;100054.06;5203907;28;20029;-83
2023/07/25 07:15:17;;;;;;;0.43;0.43;;;;;;;17.46;65.08;100055.16;5202200;28;20043;-83
2023/07/25 07:18:08;;;;;;;0.20;0.20;;;;;;;17.45;64.87;100037.56;5205263;28;20096;-83
2023/07/25 07:20:59;;;;;;;0.40;0.40;;;;;;;17.50;64.93;100040.75;5223743;28;20021;-83
2023/07/25 07:23:50;;;;;;;0.32;0.32;;;;;;;17.49;64.95;100041.69;5214840;28;20039;-84
2023/07/25 07:26:41;;;;;;;0.35;0.35;;;;;;;17.43;65.13;100047.41;5199284;28;20209;-82
2023/07/25 07:29:32;;;;;;;0.30;0.30;;;;;;;17.52;64.71;100046.78;5210257;28;20036;-84
2023/07/25 07:32:23;;;;;;;0.20;0.20;;;;;;;17.64;64.23;100047.78;5196999;28;20025;-83
2023/07/25 07:35:14;;;;;;;0.38;0.38;;;;;;;17.46;64.49;100056.00;5201287;28;20032;-84
2023/07/25 07:38:05;;;;;;;0.30;0.30;;;;;;;17.56;64.41;100050.94;5198102;28;20036;-83
2023/07/25 07:40:56;;;;;;;0.85;0.85;;;;;;;17.73;64.01;100057.78;5191987;28;20075;-83
2023/07/25 07:43:47;;;;;;;0.43;0.43;;;;;;;17.74;63.50;100056.81;5192935;28;20040;-84
2023/07/25 07:46:37;;;;;;;0.30;0.30;;;;;;;17.53;63.19;100056.47;5202196;28;20082;-85
2023/07/25 07:49:28;;;;;;;0.40;0.40;;;;;;;17.54;62.84;100063.47;5200973;28;20072;-83
2023/07/25 07:52:25;;;;;;;0.40;0.40;;;;;;;17.67;63.44;100063.50;5213566;28;20025;-83
2023/07/25 07:55:17;;;;;;;0.22;0.22;;;;;;;17.76;62.48;100068.19;5206466;28;20051;-83
2023/07/25 07:58:09;;;;;;;0.40;0.40;;;;;;;17.74;63.10;100066.56;5204784;28;20104;-83
2023/07/25 08:01:03;;;;;;;0.30;0.30;;;;;;;17.80;62.83;100073.25;5212500;28;20025;-83
2023/07/25 08:03:54;;;;;;;0.20;0.20;;;;;;;17.84;63.47;100066.81;5211055;28;20371;-82
2023/07/25 08:06:45;;;;;;;0.30;0.30;;;;;;;17.92;63.43;100070.63;5200032;28;20618;-83
2023/07/25 08:09:45;;;;;;;0.30;0.30;;;;;;;18.00;62.46;100074.59;5200746;28;20041;-82
2023/07/25 08:12:37;;;;;;;0.68;0.68;;;;;;;18.05;61.51;100073.31;5199558;28;20034;-82
2023/07/25 08:15:28;;;;;;;0.77;0.77;;;;;;;17.87;62.45;100071.88;5199105;28;20041;-81
2023/07/25 08:18:19;;;;;;;0.40;0.40;;;;;;;17.98;62.14;100068.53;5203581;28;20028;-82
2023/07/25 08:21:10;;;;;;;0.50;0.50;;;;;;;18.03;62.40;100074.38;5206567;28;20029;-79
2023/07/25 08:24:01;;;;;;;0.63;0.63;;;;;;;18.00;62.01;100074.59;5232570;28;20253;-80
2023/07/25 08:26:52;;;;;;;1.75;0.63;;;;;;;17.82;61.14;100066.88;5223384;28;20024;-82
2023/07/25 08:29:45;;;;;;;2.78;0.55;;;;;;;18.02;61.71;100072.69;5200004;28;20020;-82
2023/07/25 08:32:36;;;;;;;0.30;0.30;;;;;;;18.07;61.88;100081.16;5190030;28;20032;-82
2023/07/25 08:35:27;;;;;;;0.20;0.20;;;;;;;17.84;61.09;100080.91;5215883;28;20045;-81
2023/07/25 08:38:18;;;;;;;1.70;1.58;;;;;;;17.78;60.72;100081.34;5216980;28;20551;-82
2023/07/25 08:41:15;;;;;;;0.20;0.20;;;;;;;17.82;60.75;100095.25;5214257;28;20041;-82
2023/07/25 08:44:11;;;;;;;0.30;0.30;;;;;;;17.94;61.34;100095.25;5201543;28;20040;-82
2023/07/25 08:47:17;;;;;;;0.22;0.22;;;;;;;17.88;60.12;100090.38;5199793;28;20020;-82
2023/07/25 08:50:14;;;;;;;1.52;1.42;;;;;;;18.08;59.92;100091.72;5210657;28;20029;-82
2023/07/25 08:53:11;;;;;;;0.43;0.43;;;;;;;18.15;59.18;100092.09;5215238;28;20486;-83
2023/07/25 08:56:03;;;;;;;0.47;0.47;;;;;;;18.16;59.23;100091.16;5212266;28;20139;-83
2023/07/25 08:58:54;;;;;;;0.30;0.30;;;;;;;17.94;59.42;100092.59;5216793;28;20031;-82
2023/07/25 09:01:46;;;;;;;0.30;0.30;;;;;;;18.07;57.48;100097.09;5193488;28;20110;-82
2023/07/25 09:04:47;;;;;;;0.30;0.30;;;;;;;18.09;58.58;100101.38;5198176;28;20099;-82
2023/07/25 09:07:38;;;;;;;0.20;0.20;;;;;;;18.20;59.01;100097.09;5216590;28;20528;-82
2023/07/25 09:10:29;;;;;;;0.20;0.20;;;;;;;17.80;55.89;100103.31;5198151;28;20041;-82
2023/07/25 09:13:20;;;;;;;2.40;1.20;;;;;;;18.08;57.75;100101.44;5194502;28;20569;-82
2023/07/25 09:16:11;;;;;;;0.40;0.40;;;;;;;18.11;57.45;100097.72;5195065;28;20045;-82
2023/07/25 09:19:02;;;;;;;0.20;0.20;;;;;;;18.19;57.45;100101.56;5200963;28;20115;-82
2023/07/25 09:22:28;;;;;;;0.20;0.20;;;;;;;18.34;55.86;100104.13;5197169;28;20052;-82
2023/07/25 09:25:19;;;;;;;0.20;0.20;;;;;;;18.36;56.10;100103.06;5195981;28;20041;-82
2023/07/25 09:28:10;;;;;;;0.20;0.20;;;;;;;18.52;57.48;100105.50;5205358;28;20506;-81
2023/07/25 09:31:05;;;;;;;2.72;1.23;;;;;;;18.43;53.58;100113.28;5210541;28;20176;-83
2023/07/25 09:33:56;;;;;;;0.30;0.30;;;;;;;18.52;54.57;100108.16;5197790;28;20024;-82
2023/07/25 09:36:48;;;;;;;1.00;1.00;;;;;;;18.55;55.33;100104.41;5210911;28;20036;-82
2023/07/25 09:39:38;;;;;;;0.32;0.32;;;;;;;18.52;53.50;100100.19;5213877;28;20036;-82
2023/07/25 09:42:29;;;;;;;0.30;0.30;;;;;;;18.62;54.83;100104.84;5194019;28;20043;-82
2023/07/25 09:45:20;;;;;;;0.90;0.90;;;;;;;18.48;54.90;100111.97;5214767;28;20064;-81
2023/07/25 09:48:11;;;;;;;0.20;0.20;;;;;;;18.64;54.91;100122.38;5226331;28;20051;-81
2023/07/25 09:51:02;;;;;;;0.20;0.20;;;;;;;18.61;54.85;100116.44;5207726;28;20055;-81
2023/07/25 09:53:54;;;;;;;0.35;0.35;;;;;;;18.80;55.01;100108.84;5191579;28;20304;-83
2023/07/25 09:56:45;;;;;;;0.43;0.40;;;;;;;18.77;54.32;100100.22;5214078;28;20029;-81
2023/07/25 09:59:37;;;;;;;0.20;0.20;;;;;;;18.84;55.38;100102.34;5228657;28;20028;-82
2023/07/25 10:02:28;;;;;;;0.70;0.70;;;;;;;18.93;54.74;100110.66;5200897;28;20040;-81
2023/07/25 10:05:19;;;;;;;0.35;0.35;;;;;;;18.98;53.61;100108.50;5208068;28;20725;-83
2023/07/25 10:08:16;;;;;;;0.20;0.20;;;;;;;18.91;50.87;100101.91;5202543;28;20051;-81
2023/07/25 10:11:07;;;;;;;0.15;0.15;;;;;;;19.01;52.59;100100.31;5202866;28;20575;-83
2023/07/25 10:13:58;;;;;;;0.93;0.52;;;;;;;19.14;53.58;100097.63;5216576;28;20051;-81
2023/07/25 10:16:49;;;;;;;0.20;0.20;;;;;;;18.98;53.00;100108.50;5209419;28;20608;-81
2023/07/25 10:19:54;;;;;;;0.25;0.25;;;;;;;18.93;53.25;100108.00;5209488;28;20397;-81
2023/07/25 10:22:46;;;;;;;0.20;0.20;;;;;;;19.00;53.49;100095.97;5212683;28;20071;-81
2023/07/25 10:25:40;;;;;;;0.20;0.20;;;;;;;19.15;54.11;100094.84;5233968;28;20052;-81
2023/07/25 10:28:31;;;;;;;0.20;0.20;;;;;;;19.23;52.36;100096.06;5201021;28;20123;-81
2023/07/25 10:31:24;;;;;;;0.30;0.30;;;;;;;19.22;51.95;100091.72;5205677;28;20041;-82
2023/07/25 10:37:19;;;;;;;0.40;0.40;;;;;;;19.06;50.88;100103.47;5245553;28;20091;-81
2023/07/25 10:40:19;;;;;;;0.30;0.30;;;;;;;19.41;52.00;100094.72;5196253;28;20033;-83
2023/07/25 10:47:43;;;;;;;0.20;0.20;;;;;;;19.45;49.77;100096.22;5219192;28;20033;-83
2023/07/25 10:51:06;;;;;;;0.20;0.20;;;;;;;19.60;50.17;100088.88;5189320;28;20047;-83
2023/07/25 10:54:09;;;;;;;0.73;0.60;;;;;;;19.66;48.75;100082.25;5195366;28;20629;-79
2023/07/25 10:57:09;;;;;;;0.20;0.20;;;;;;;19.64;48.71;100085.03;5196883;28;20514;-79
2023/07/25 11:01:04;;;;;;;0.65;0.30;;;;;;;19.93;48.72;100084.66;5218981;28;20064;-80
2023/07/25 11:03:56;;;;;;;0.28;0.28;;;;;;;20.09;50.59;100079.00;5190149;28;20025;-80
2023/07/25 11:06:49;;;;;;;0.33;0.33;;;;;;;20.16;49.95;100083.84;5195827;28;20454;-79
2023/07/25 11:09:45;;;;;;;0.20;0.20;;;;;;;20.01;50.02;100091.19;5200786;28;20037;-80
2023/07/25 11:12:36;;;;;;;0.40;0.40;;;;;;;20.10;49.83;100091.34;5216659;28;20797;-81
2023/07/25 11:15:29;;;;;;;0.75;0.60;;;;;;;20.11;49.86;100095.72;5186934;28;20103;-81
2023/07/25 11:18:20;;;;;;;0.30;0.30;;;;;;;19.80;49.14;100094.50;5184982;28;20037;-81
2023/07/25 11:21:11;;;;;;;2.80;1.15;;;;;;;19.99;49.99;100099.31;5215004;28;20021;-80
2023/07/25 11:24:03;;;;;;;0.30;0.30;;;;;;;20.06;48.47;100105.84;5207062;28;20032;-81
2023/07/25 11:26:54;;;;;;;0.30;0.30;;;;;;;19.86;47.95;100106.53;5194520;28;20545;-80
2023/07/25 11:29:45;;;;;;;1.38;0.88;;;;;;;19.82;47.42;100095.25;5210101;28;20102;-80
2023/07/25 11:32:36;;;;;;;0.35;0.35;;;;;;;20.03;48.43;100103.44;5207970;28;20040;-80
2023/07/25 11:35:29;;;;;;;1.35;1.20;;;;;;;19.86;49.76;100104.72;5205698;28;20256;-81
2023/07/25 11:38:21;;;;;;;0.68;0.68;;;;;;;19.85;50.45;100112.84;5222220;28;20054;-80
2023/07/25 11:45:18;;;;;;;0.20;0.20;;;;;;;19.56;48.90;100105.19;5221148;28;20060;-81
2023/07/25 11:48:09;;;;;;;0.55;0.38;;;;;;;19.64;50.60;100121.41;5206732;28;20037;-81
2023/07/25 11:51:00;;;;;;;0.20;0.20;;;;;;;19.84;51.67;100113.75;5198502;28;20039;-81
2023/07/25 11:53:51;;;;;;;1.08;0.73;;;;;;;19.72;52.74;100124.34;5218997;28;20108;-81
2023/07/25 11:56:42;;;;;;;0.40;0.40;;;;;;;19.68;52.95;100138.88;5194766;28;20538;-81
2023/07/25 11:59:39;;;;;;;0.45;0.45;;;;;;;19.59;52.57;100132.41;5186231;28;20072;-80
2023/07/25 12:02:37;;;;;;;0.20;0.20;;;;;;;19.71;52.59;100133.28;5192976;28;20055;-80
2023/07/25 12:05:29;;;;;;;0.98;0.55;;;;;;;19.75;52.66;100140.09;5205118;28;20889;-80
2023/07/25 12:08:32;;;;;;;0.70;0.70;;;;;;;19.25;53.44;100142.91;5208807;28;20866;-81
2023/07/25 12:11:23;;;;;;;0.50;0.50;;;;;;;19.39;52.91;100149.84;5216178;28;20475;-81
2023/07/25 12:14:14;;;;;;;0.20;0.20;;;;;;;19.26;53.00;100146.41;5205769;28;20042;-81
2023/07/25 12:17:05;;;;;;;0.20;0.20;;;;;;;19.37;52.93;100149.13;5205683;28;20049;-80
2023/07/25 12:19:56;;;;;;;0.50;0.50;;;;;;;19.05;54.26;100156.78;5206914;28;20110;-81
2023/07/25 12:22:47;;;;;;;1.08;0.77;;;;;;;18.89;54.83;100147.22;5193264;28;20652;-79
2023/07/25 12:25:38;;;;;;;0.30;0.30;;;;;;;19.24;54.54;100153.63;5188538;28;20040;-79
2023/07/25 12:28:44;;;;;;;0.32;0.30;;;;;;;18.67;55.33;100148.75;5207816;28;20789;-80
2023/07/25 12:31:34;;;;;;;0.20;0.20;;;;;;;18.68;54.78;100154.88;5193425;28;20041;-81
2023/07/25 12:34:25;;;;;;;0.55;0.55;;;;;;;19.12;54.29;100164.22;5202929;28;20099;-79
2023/07/25 12:37:16;;;;;;;0.20;0.20;;;;;;;18.91;54.12;100165.69;5195235;28;20503;-79
2023/07/25 12:40:07;;;;;;;0.38;0.38;;;;;;;18.66;53.64;100162.13;5189948;28;20036;-79
2023/07/25 12:43:17;;;;;;;0.30;0.30;;;;;;;18.73;52.83;100168.69;5218142;28;20594;-81
2023/07/25 12:46:08;;;;;;;0.60;0.60;;;;;;;19.03;52.70;100172.84;5204662;28;20044;-80
2023/07/25 12:48:59;;;;;;;0.60;0.60;;;;;;;19.05;53.12;100176.22;5207014;28;20102;-80
2023/07/25 12:52:18;;;;;;;0.52;0.50;;;;;;;19.05;52.72;100178.88;5190474;28;20021;-80
2023/07/25 12:55:09;;;;;;;0.93;0.93;;;;;;;19.34;52.57;100181.25;5196974;28;20107;-79
2023/07/25 12:58:01;;;;;;;1.65;1.08;;;;;;;19.45;52.72;100189.31;5188809;28;20512;-79
2023/07/25 13:00:52;;;;;;;0.45;0.45;;;;;;;19.42;52.26;100188.69;5183133;28;20223;-79
2023/07/25 13:03:43;;;;;;;0.20;0.20;;;;;;;19.36;50.62;100176.69;5188686;28;20033;-78
2023/07/25 13:06:34;;;;;;;0.50;0.50;;;;;;;19.56;50.69;100179.69;5191743;28;20037;-80
2023/07/25 13:09:25;;;;;;;1.05;0.52;;;;;;;19.71;51.82;100178.53;5188362;28;20033;-78
2023/07/25 13:12:22;;;;;;;0.50;0.50;;;;;;;19.84;51.69;100190.94;5186658;28;20116;-79
2023/07/25 13:15:13;;;;;;;0.20;0.20;;;;;;;19.77;49.61;100180.78;5203797;28;20038;-79
2023/07/25 13:18:04;;;;;;;1.08;0.68;;;;;;;19.96;50.90;100185.59;5222715;28;20041;-80
2023/07/25 13:21:01;;;;;;;0.30;0.30;;;;;;;19.94;50.15;100176.03;5191068;28;20044;-80
2023/07/25 13:23:52;;;;;;;0.22;0.22;;;;;;;19.81;49.80;100176.91;5206328;28;20084;-80
2023/07/25 13:26:42;;;;;;;0.50;0.50;;;;;;;19.99;50.27;100179.19;5197443;28;20026;-80
2023/07/25 13:29:33;;;;;;;0.32;0.32;;;;;;;20.08;50.89;100173.16;5195930;28;20131;-81
2023/07/25 13:32:24;;;;;;;0.20;0.20;;;;;;;20.01;51.08;100171.94;5206813;28;20037;-82
2023/07/25 13:35:15;;;;;;;0.30;0.30;;;;;;;19.86;51.34;100176.59;5193141;28;20041;-83